createdAt,value
2023-05-05T00:01:20.426Z,100.00
2023-05-05T00:03:47.393Z,100.00
2023-05-05T00:06:14.746Z,100.00
2023-05-05T00:08:41.874Z,100.00
2023-05-05T00:11:08.445Z,100.00
2023-05-05T00:13:35.064Z,100.00
2023-05-05T00:16:01.752Z,100.00
2023-05-05T00:18:29.524Z,100.00
2023-05-05T00:20:56.005Z,100.00
2023-05-05T00:23:22.521Z,100.00
2023-05-05T00:25:49.057Z,100.00
2023-05-05T00:28:15.769Z,100.00
2023-05-05T00:30:42.811Z,100.00
2023-05-05T00:33:09.439Z,100.00
2023-05-05T00:35:35.920Z,100.00
2023-05-05T00:38:02.960Z,100.00
2023-05-05T00:40:29.553Z,100.00
2023-05-05T00:42:55.995Z,100.00
2023-05-05T00:45:22.568Z,100.00
2023-05-05T00:47:55.457Z,100.00
2023-05-05T00:50:25.704Z,100.00
2023-05-05T00:53:00.297Z,100.00
2023-05-05T00:55:29.593Z,100.00
2023-05-05T00:57:58.351Z,100.00
2023-05-05T01:00:26.416Z,100.00
2023-05-05T01:02:53.305Z,100.00
2023-05-05T01:05:23.476Z,100.00
2023-05-05T01:07:54.377Z,100.00
2023-05-05T01:10:53.074Z,100.00
2023-05-05T01:13:52.490Z,100.00
2023-05-05T01:16:26.854Z,100.00
2023-05-05T01:19:24.915Z,100.00
2023-05-05T01:22:00.673Z,100.00
2023-05-05T01:25:08.738Z,100.00
2023-05-05T01:27:38.302Z,100.00
2023-05-05T01:31:04.572Z,100.00
2023-05-05T01:33:44.054Z,100.00
2023-05-05T01:36:22.773Z,100.00
2023-05-05T01:38:58.047Z,100.00
2023-05-05T01:41:37.789Z,100.00
2023-05-05T01:44:10.502Z,100.00
2023-05-05T01:46:37.876Z,100.00
2023-05-05T01:49:09.978Z,100.00
2023-05-05T01:51:39.045Z,100.00
2023-05-05T01:54:08.356Z,100.00
2023-05-05T01:56:40.620Z,100.00
2023-05-05T01:59:09.937Z,100.00
2023-05-05T02:01:41.668Z,100.00
2023-05-05T02:04:10.063Z,100.00
2023-05-05T02:06:40.896Z,100.00
2023-05-05T02:09:13.751Z,100.00
2023-05-05T02:11:41.509Z,100.00
2023-05-05T02:14:11.140Z,100.00
2023-05-05T02:16:41.258Z,100.00
2023-05-05T02:19:12.137Z,100.00
2023-05-05T02:21:39.196Z,100.00
2023-05-05T02:24:07.331Z,100.00
2023-05-05T02:26:40.135Z,100.00
2023-05-05T02:29:17.325Z,100.00
2023-05-05T02:31:50.848Z,100.00
2023-05-05T02:34:27.015Z,100.00
2023-05-05T02:37:03.308Z,100.00
2023-05-05T02:39:38.562Z,100.00
2023-05-05T02:42:09.069Z,100.00
2023-05-05T02:44:42.461Z,100.00
2023-05-05T02:47:09.431Z,100.00
2023-05-05T02:49:36.726Z,100.00
2023-05-05T02:52:03.423Z,100.00
2023-05-05T02:54:32.706Z,100.00
2023-05-05T02:57:00.717Z,100.00
2023-05-05T02:59:48.646Z,100.00
2023-05-05T03:02:45.131Z,100.00
2023-05-05T03:05:40.642Z,100.00
2023-05-05T03:08:18.448Z,100.00
2023-05-05T03:11:01.496Z,100.00
2023-05-05T03:13:29.898Z,100.00
2023-05-05T03:16:00.091Z,100.00
2023-05-05T03:18:31.342Z,100.00
2023-05-05T03:21:07.808Z,100.00
2023-05-05T03:23:43.727Z,100.00
2023-05-05T03:26:10.759Z,100.00
2023-05-05T03:28:37.533Z,100.00
2023-05-05T03:31:04.904Z,100.00
2023-05-05T03:33:31.512Z,100.00
2023-05-05T03:35:58.030Z,100.00
2023-05-05T03:38:24.543Z,100.00
2023-05-05T03:40:51.085Z,100.00
2023-05-05T03:43:17.675Z,100.00
2023-05-05T03:45:44.134Z,100.00
2023-05-05T03:48:10.762Z,100.00
2023-05-05T03:50:37.644Z,100.00
2023-05-05T03:53:04.112Z,100.00
2023-05-05T03:55:33.556Z,100.00
2023-05-05T03:58:00.157Z,100.00
2023-05-05T04:00:27.462Z,100.00
2023-05-05T04:02:54.006Z,100.00
2023-05-05T04:05:22.491Z,100.00
2023-05-05T04:07:52.294Z,100.00
2023-05-05T04:10:18.929Z,100.00
2023-05-05T04:12:46.239Z,100.00
2023-05-05T04:15:12.732Z,100.00
2023-05-05T04:17:39.565Z,100.00
2023-05-05T04:20:07.559Z,100.00
2023-05-05T04:22:34.203Z,100.00
2023-05-05T04:25:01.167Z,100.00
2023-05-05T04:27:29.854Z,100.00
2023-05-05T04:29:57.556Z,100.00
2023-05-05T04:32:24.479Z,100.00
2023-05-05T04:34:51.053Z,100.00
2023-05-05T04:37:17.570Z,100.00
2023-05-05T04:39:44.337Z,100.00
2023-05-05T04:42:11.191Z,100.00
2023-05-05T04:44:37.940Z,100.00
2023-05-05T04:47:04.439Z,100.00
2023-05-05T04:49:31.871Z,100.00
2023-05-05T04:51:59.132Z,100.00
2023-05-05T04:54:25.780Z,100.00
2023-05-05T04:56:52.636Z,100.00
2023-05-05T04:59:19.168Z,100.00
2023-05-05T05:01:46.112Z,100.00
2023-05-05T05:04:13.691Z,100.00
2023-05-05T05:06:40.604Z,100.00
2023-05-05T05:09:07.096Z,100.00
2023-05-05T05:11:35.888Z,100.00
2023-05-05T05:14:02.581Z,100.00
2023-05-05T05:16:29.287Z,100.00
2023-05-05T05:18:55.726Z,100.00
2023-05-05T05:21:22.207Z,100.00
2023-05-05T05:23:48.660Z,100.00
2023-05-05T05:26:15.191Z,100.00
2023-05-05T05:28:42.003Z,100.00
2023-05-05T05:31:12.610Z,100.00
2023-05-05T05:33:39.523Z,100.00
2023-05-05T05:36:06.096Z,100.00
2023-05-05T05:38:33.260Z,100.00
2023-05-05T05:40:59.730Z,100.00
2023-05-05T05:43:26.163Z,100.00
2023-05-05T05:45:52.670Z,100.00
2023-05-05T05:48:19.181Z,100.00
2023-05-05T05:50:45.601Z,100.00
2023-05-05T05:53:12.005Z,100.00
2023-05-05T05:55:38.839Z,100.00
2023-05-05T05:58:05.345Z,100.00
2023-05-05T06:00:31.844Z,100.00
2023-05-05T06:02:58.607Z,100.00
2023-05-05T06:05:25.212Z,100.00
2023-05-05T06:07:51.650Z,100.00
2023-05-05T06:10:29.827Z,99.74
2023-05-05T06:12:56.597Z,100.00
2023-05-05T06:15:23.472Z,98.93
2023-05-05T06:17:49.958Z,100.00
2023-05-05T06:20:16.654Z,99.16
2023-05-05T06:22:43.118Z,100.00
2023-05-05T06:25:09.795Z,99.12
2023-05-05T06:27:37.694Z,96.78
2023-05-05T06:30:09.692Z,96.53
2023-05-05T06:32:36.355Z,94.74
2023-05-05T06:35:03.190Z,93.60
2023-05-05T06:37:30.749Z,97.45
2023-05-05T06:39:57.234Z,97.38
2023-05-05T06:42:23.788Z,94.95
2023-05-05T06:44:50.347Z,92.43
2023-05-05T06:47:17.661Z,91.50
2023-05-05T06:49:44.300Z,88.37
2023-05-05T06:52:11.366Z,93.15
2023-05-05T06:54:44.749Z,91.76
2023-05-05T06:57:11.186Z,89.18
2023-05-05T06:59:38.321Z,89.83
2023-05-05T07:02:05.599Z,84.18
2023-05-05T07:04:32.068Z,82.43
2023-05-05T07:06:58.535Z,80.63
2023-05-05T07:09:25.153Z,82.56
2023-05-05T07:11:52.223Z,82.57
2023-05-05T07:14:18.752Z,82.37
2023-05-05T07:16:48.401Z,77.94
2023-05-05T07:19:16.802Z,75.31
2023-05-05T07:21:43.361Z,75.32
2023-05-05T07:24:10.547Z,76.31
2023-05-05T07:26:37.324Z,71.88
2023-05-05T07:29:05.633Z,71.25
2023-05-05T07:31:32.183Z,70.10
2023-05-05T07:33:59.554Z,71.36
2023-05-05T07:36:28.011Z,67.25
2023-05-05T07:38:54.850Z,67.79
2023-05-05T07:41:21.498Z,66.52
2023-05-05T07:43:59.565Z,66.48
2023-05-05T07:46:26.947Z,65.27
2023-05-05T07:48:53.391Z,67.36
2023-05-05T07:51:21.423Z,65.62
2023-05-05T07:53:47.882Z,63.64
2023-05-05T07:56:14.532Z,66.04
2023-05-05T07:58:42.204Z,65.55
2023-05-05T08:01:10.912Z,61.95
2023-05-05T08:03:37.953Z,64.72
2023-05-05T08:06:09.882Z,62.16
2023-05-05T08:08:38.171Z,65.34
2023-05-05T08:11:06.543Z,62.35
2023-05-05T08:13:34.478Z,62.22
2023-05-05T08:16:01.053Z,60.67
2023-05-05T08:18:27.837Z,61.17
2023-05-05T08:20:54.702Z,59.97
2023-05-05T08:23:22.349Z,58.79
2023-05-05T08:25:49.811Z,62.01
2023-05-05T08:28:18.920Z,64.21
2023-05-05T08:30:47.104Z,61.90
2023-05-05T08:33:13.552Z,57.90
2023-05-05T08:35:44.923Z,60.43
2023-05-05T08:38:12.542Z,57.96
2023-05-05T08:40:48.318Z,56.45
2023-05-05T08:43:25.516Z,58.26
2023-05-05T08:45:53.042Z,54.94
2023-05-05T08:48:20.923Z,57.69
2023-05-05T08:50:56.717Z,52.34
2023-05-05T08:53:51.243Z,55.88
2023-05-05T08:56:21.887Z,53.04
2023-05-05T08:58:51.139Z,56.48
2023-05-05T09:01:18.553Z,54.86
2023-05-05T09:03:46.259Z,56.55
2023-05-05T09:06:13.538Z,51.71
2023-05-05T09:08:41.112Z,50.70
2023-05-05T09:11:08.116Z,51.33
2023-05-05T09:13:34.697Z,51.07
2023-05-05T09:16:01.481Z,48.09
2023-05-05T09:18:30.278Z,45.16
2023-05-05T09:20:59.560Z,49.14
2023-05-05T09:23:27.558Z,44.49
2023-05-05T09:26:08.083Z,49.51
2023-05-05T09:28:34.686Z,46.30
2023-05-05T09:31:19.845Z,47.25
2023-05-05T09:33:51.334Z,42.92
2023-05-05T09:36:17.807Z,43.53
2023-05-05T09:39:06.018Z,43.17
2023-05-05T09:41:47.607Z,44.31
2023-05-05T09:44:17.509Z,48.29
2023-05-05T09:46:52.923Z,42.83
2023-05-05T09:49:25.713Z,46.53
2023-05-05T09:51:54.510Z,44.27
2023-05-05T09:54:26.515Z,45.46
2023-05-05T09:56:55.400Z,49.50
2023-05-05T09:59:23.562Z,41.95
2023-05-05T10:01:51.164Z,42.43
2023-05-05T10:04:33.483Z,42.88
2023-05-05T10:07:01.572Z,41.44
2023-05-05T10:09:28.133Z,42.96
2023-05-05T10:11:59.034Z,44.18
2023-05-05T10:14:27.805Z,43.33
2023-05-05T10:16:59.513Z,41.22
2023-05-05T10:19:35.780Z,43.34
2023-05-05T10:22:08.390Z,42.53
2023-05-05T10:24:45.326Z,45.70
2023-05-05T10:27:20.424Z,42.70
2023-05-05T10:29:51.077Z,44.70
2023-05-05T10:35:06.175Z,42.60
2023-05-05T10:37:39.458Z,43.55
2023-05-05T10:40:09.470Z,46.27
2023-05-05T10:42:40.197Z,46.40
2023-05-05T10:45:09.560Z,47.16
2023-05-05T10:47:40.099Z,45.88
2023-05-05T10:50:30.483Z,47.02
2023-05-05T10:53:24.552Z,45.13
2023-05-05T10:56:27.257Z,46.32
2023-05-05T10:59:00.117Z,44.45
2023-05-05T11:01:34.927Z,45.17
2023-05-05T11:04:34.532Z,44.18
2023-05-05T11:07:10.299Z,43.18
2023-05-05T11:09:56.714Z,43.78
2023-05-05T11:12:23.800Z,38.54
2023-05-05T11:15:26.045Z,37.08
2023-05-05T11:17:55.107Z,39.43
2023-05-05T11:20:43.400Z,39.81
2023-05-05T11:23:09.837Z,36.20
2023-05-05T11:25:38.954Z,37.20
2023-05-05T11:28:12.291Z,34.04
2023-05-05T11:30:55.730Z,31.80
2023-05-05T11:33:32.291Z,34.52
2023-05-05T11:36:05.018Z,34.14
2023-05-05T11:38:37.229Z,33.61
2023-05-05T11:41:13.371Z,36.64
2023-05-05T11:43:46.742Z,33.93
2023-05-05T11:46:22.374Z,37.90
2023-05-05T11:48:52.910Z,36.56
2023-05-05T11:51:28.302Z,34.33
2023-05-05T11:53:58.390Z,33.96
2023-05-05T11:56:25.803Z,32.54
2023-05-05T11:59:10.474Z,34.45
2023-05-05T12:01:42.202Z,36.40
2023-05-05T12:04:13.548Z,32.90
2023-05-05T12:06:41.265Z,34.66
2023-05-05T12:09:25.304Z,38.30
2023-05-05T12:11:56.278Z,35.13
2023-05-05T12:14:25.707Z,33.95
2023-05-05T12:17:07.959Z,33.68
2023-05-05T12:19:38.586Z,32.89
2023-05-05T12:22:05.329Z,35.14
2023-05-05T12:24:33.322Z,35.72
2023-05-05T12:27:12.072Z,33.74
2023-05-05T12:29:40.546Z,37.19
2023-05-05T12:32:07.183Z,33.37
2023-05-05T12:34:34.288Z,31.74
2023-05-05T12:37:02.203Z,30.97
2023-05-05T12:39:36.592Z,37.50
2023-05-05T12:42:04.958Z,35.76
2023-05-05T12:44:36.687Z,35.44
2023-05-05T12:47:04.534Z,34.47
2023-05-05T12:49:34.149Z,36.98
2023-05-05T12:52:01.520Z,34.63
2023-05-05T12:54:30.210Z,32.69
2023-05-05T12:56:58.675Z,35.54
2023-05-05T12:59:25.117Z,36.79
2023-05-05T13:01:54.205Z,36.66
2023-05-05T13:04:24.140Z,32.17
2023-05-05T13:07:12.196Z,36.97
2023-05-05T13:09:42.680Z,35.83
2023-05-05T13:12:12.268Z,32.59
2023-05-05T13:14:40.582Z,34.20
2023-05-05T13:17:07.499Z,33.67
2023-05-05T13:19:41.546Z,32.57
2023-05-05T13:22:11.561Z,35.31
2023-05-05T13:24:50.943Z,35.01
2023-05-05T13:27:21.210Z,33.19
2023-05-05T13:29:48.030Z,38.77
2023-05-05T13:32:14.592Z,33.88
2023-05-05T13:34:42.410Z,33.92
2023-05-05T13:37:09.021Z,36.45
2023-05-05T13:39:37.111Z,36.18
2023-05-05T13:42:03.807Z,39.31
2023-05-05T13:44:33.658Z,38.59
2023-05-05T13:47:00.353Z,42.04
2023-05-05T13:49:26.948Z,38.09
2023-05-05T13:51:53.599Z,40.83
2023-05-05T13:54:20.112Z,41.96
2023-05-05T13:56:47.221Z,44.13
2023-05-05T13:59:13.875Z,46.09
2023-05-05T14:01:43.492Z,48.98
2023-05-05T14:04:11.186Z,50.21
2023-05-05T14:06:37.749Z,50.49
2023-05-05T14:09:07.434Z,52.19
2023-05-05T14:11:35.099Z,53.32
2023-05-05T14:14:01.691Z,53.80
2023-05-05T14:16:28.355Z,52.84
2023-05-05T14:18:54.972Z,54.26
2023-05-05T14:21:22.042Z,55.65
2023-05-05T14:23:48.530Z,56.20
2023-05-05T14:26:18.483Z,55.68
2023-05-05T14:28:46.733Z,57.73
2023-05-05T14:31:14.923Z,58.35
2023-05-05T14:33:41.427Z,59.87
2023-05-05T14:36:09.395Z,60.58
2023-05-05T14:38:35.958Z,61.57
2023-05-05T14:41:02.493Z,60.59
2023-05-05T14:43:29.197Z,60.50
2023-05-05T14:45:58.141Z,59.70
2023-05-05T14:48:24.745Z,60.64
2023-05-05T14:50:51.245Z,60.01
2023-05-05T14:53:19.097Z,61.67
2023-05-05T14:55:45.736Z,61.31
2023-05-05T14:58:12.397Z,61.81
2023-05-05T15:00:40.206Z,59.76
2023-05-05T15:03:08.492Z,62.88
2023-05-05T15:05:35.792Z,61.07
2023-05-05T15:08:02.276Z,60.64
2023-05-05T15:10:28.951Z,58.73
2023-05-05T15:12:55.490Z,60.56
2023-05-05T15:15:22.030Z,60.01
2023-05-05T15:17:48.560Z,62.11
2023-05-05T15:20:15.148Z,58.33
2023-05-05T15:22:41.673Z,59.87
2023-05-05T15:25:12.420Z,61.82
2023-05-05T15:27:40.541Z,58.55
2023-05-05T15:30:08.443Z,59.68
2023-05-05T15:32:35.206Z,58.57
2023-05-05T15:35:01.884Z,60.08
2023-05-05T15:37:30.444Z,61.35
2023-05-05T15:40:00.084Z,63.34
2023-05-05T15:42:27.886Z,63.23
2023-05-05T15:44:55.611Z,61.15
2023-05-05T15:47:22.712Z,63.94
2023-05-05T15:49:49.283Z,63.21
2023-05-05T15:52:15.902Z,66.98
2023-05-05T15:54:43.484Z,65.58
2023-05-05T15:57:10.264Z,62.99
2023-05-05T15:59:44.602Z,60.26
2023-05-05T16:02:11.555Z,62.90
2023-05-05T16:04:38.149Z,59.39
2023-05-05T16:07:04.578Z,56.23
2023-05-05T16:09:31.518Z,57.87
2023-05-05T16:12:00.947Z,55.08
2023-05-05T16:14:28.436Z,56.03
2023-05-05T16:16:55.564Z,58.40
2023-05-05T16:19:23.341Z,58.04
2023-05-05T16:21:50.228Z,54.53
2023-05-05T16:24:17.230Z,54.41
2023-05-05T16:26:45.982Z,56.85
2023-05-05T16:29:12.704Z,57.33
2023-05-05T16:31:40.257Z,56.15
2023-05-05T16:34:07.059Z,55.22
2023-05-05T16:36:36.247Z,57.09
2023-05-05T16:39:03.530Z,56.24
2023-05-05T16:41:30.114Z,56.20
2023-05-05T16:43:56.689Z,55.44
2023-05-05T16:46:23.355Z,57.14
2023-05-05T16:48:50.929Z,55.61
2023-05-05T16:51:18.075Z,55.79
2023-05-05T16:53:44.516Z,54.88
2023-05-05T16:56:12.919Z,55.21
2023-05-05T16:58:40.531Z,54.57
2023-05-05T17:01:07.130Z,53.94
2023-05-05T17:03:33.660Z,54.58
2023-05-05T17:06:00.484Z,53.82
2023-05-05T17:08:27.257Z,52.15
2023-05-05T17:10:53.804Z,53.44
2023-05-05T17:13:20.343Z,54.71
2023-05-05T17:15:47.214Z,56.07
2023-05-05T17:18:13.798Z,53.05
2023-05-05T17:20:40.334Z,54.56
2023-05-05T17:23:08.754Z,53.71
2023-05-05T17:25:35.897Z,54.41
2023-05-05T17:28:03.815Z,52.41
2023-05-05T17:30:30.376Z,52.10
2023-05-05T17:32:56.885Z,51.49
2023-05-05T17:35:24.258Z,53.06
2023-05-05T17:37:51.721Z,53.40
2023-05-05T17:40:18.297Z,53.09
2023-05-05T17:42:48.182Z,55.64
2023-05-05T17:45:14.622Z,53.40
2023-05-05T17:47:41.315Z,53.26
2023-05-05T17:50:10.562Z,54.19
2023-05-05T17:52:37.293Z,59.58
2023-05-05T17:55:04.123Z,56.09
2023-05-05T17:57:33.029Z,61.96
2023-05-05T18:00:06.350Z,62.01
2023-05-05T18:02:36.810Z,56.67
2023-05-05T18:05:05.172Z,61.04
2023-05-05T18:07:33.572Z,62.32
2023-05-05T18:10:00.648Z,60.27
2023-05-05T18:12:27.405Z,61.93
2023-05-05T18:14:53.850Z,60.24
2023-05-05T18:17:21.058Z,62.90
2023-05-05T18:19:49.096Z,61.73
2023-05-05T18:22:15.906Z,62.67
2023-05-05T18:24:43.112Z,67.28
2023-05-05T18:27:10.091Z,66.61
2023-05-05T18:29:36.951Z,65.42
2023-05-05T18:32:06.374Z,67.10
2023-05-05T18:34:33.911Z,69.95
2023-05-05T18:37:00.567Z,70.50
2023-05-05T18:39:27.302Z,72.54
2023-05-05T18:41:53.740Z,74.54
2023-05-05T18:44:20.347Z,76.62
2023-05-05T18:46:48.337Z,76.75
2023-05-05T18:49:16.749Z,76.90
2023-05-05T18:51:43.960Z,76.92
2023-05-05T18:54:10.636Z,79.53
2023-05-05T18:56:37.356Z,79.78
2023-05-05T18:59:04.780Z,80.13
2023-05-05T19:01:31.317Z,82.22
2023-05-05T19:03:57.880Z,81.66
2023-05-05T19:06:24.376Z,84.10
2023-05-05T19:08:51.010Z,83.81
2023-05-05T19:11:18.052Z,84.15
2023-05-05T19:13:45.799Z,86.50
2023-05-05T19:16:12.834Z,88.39
2023-05-05T19:18:41.119Z,87.00
2023-05-05T19:21:09.541Z,87.08
2023-05-05T19:23:38.037Z,87.49
2023-05-05T19:26:06.687Z,91.95
2023-05-05T19:28:36.155Z,92.76
2023-05-05T19:31:02.696Z,90.97
2023-05-05T19:33:29.336Z,86.71
2023-05-05T19:35:56.545Z,88.59
2023-05-05T19:38:23.138Z,87.60
2023-05-05T19:40:50.174Z,88.60
2023-05-05T19:43:16.650Z,89.36
2023-05-05T19:45:43.290Z,89.16
2023-05-05T19:48:09.867Z,87.35
2023-05-05T19:50:36.756Z,91.38
2023-05-05T19:53:03.936Z,94.81
2023-05-05T19:55:30.573Z,92.55
2023-05-05T19:57:56.961Z,95.15
2023-05-05T20:00:23.496Z,94.06
2023-05-05T20:02:50.048Z,95.18
2023-05-05T20:05:17.303Z,96.24
2023-05-05T20:07:46.184Z,97.65
2023-05-05T20:10:13.829Z,98.35
2023-05-05T20:12:47.519Z,98.35
2023-05-05T20:15:19.249Z,97.82
2023-05-05T20:17:47.771Z,99.78
2023-05-05T20:20:20.413Z,98.78
2023-05-05T20:22:48.870Z,97.48
2023-05-05T20:25:16.208Z,100.00
2023-05-05T20:27:45.266Z,99.86
2023-05-05T20:30:12.996Z,100.00
2023-05-05T20:32:39.640Z,98.85
2023-05-05T20:35:07.208Z,99.84
2023-05-05T20:37:33.708Z,100.00
2023-05-05T20:40:00.327Z,100.00
2023-05-05T20:42:27.605Z,100.00
2023-05-05T20:44:54.138Z,100.00
2023-05-05T20:47:20.691Z,100.00
2023-05-05T20:49:47.375Z,100.00
2023-05-05T20:52:13.865Z,100.00
2023-05-05T20:54:40.442Z,100.00
2023-05-05T20:57:07.879Z,100.00
2023-05-05T20:59:34.465Z,100.00
2023-05-05T21:02:01.001Z,100.00
2023-05-05T21:04:27.534Z,100.00
2023-05-05T21:06:54.076Z,100.00
2023-05-05T21:09:21.921Z,100.00
2023-05-05T21:11:48.770Z,100.00
2023-05-05T21:14:15.469Z,100.00
2023-05-05T21:16:42.611Z,100.00
2023-05-05T21:19:09.208Z,100.00
2023-05-05T21:21:35.832Z,100.00
2023-05-05T21:24:02.976Z,100.00
2023-05-05T21:26:30.380Z,100.00
2023-05-05T21:28:56.951Z,100.00
2023-05-05T21:31:23.609Z,100.00
2023-05-05T21:33:50.267Z,100.00
2023-05-05T21:36:18.882Z,100.00
2023-05-05T21:38:45.813Z,100.00
2023-05-05T21:41:12.683Z,100.00
2023-05-05T21:43:39.179Z,100.00
2023-05-05T21:46:05.810Z,100.00
2023-05-05T21:48:32.628Z,100.00
2023-05-05T21:50:59.575Z,100.00
2023-05-05T21:53:26.282Z,100.00
2023-05-05T21:55:52.816Z,100.00
2023-05-05T21:58:19.436Z,100.00
2023-05-05T22:00:49.695Z,100.00
2023-05-05T22:03:16.690Z,100.00
2023-05-05T22:05:43.193Z,100.00
2023-05-05T22:08:09.820Z,100.00
2023-05-05T22:10:36.467Z,100.00
2023-05-05T22:13:02.972Z,100.00
2023-05-05T22:15:35.713Z,100.00
2023-05-05T22:18:09.627Z,100.00
2023-05-05T22:20:38.649Z,100.00
2023-05-05T22:23:05.203Z,100.00
2023-05-05T22:25:31.658Z,100.00
2023-05-05T22:27:58.049Z,100.00
2023-05-05T22:30:24.507Z,100.00
2023-05-05T22:32:50.962Z,100.00
2023-05-05T22:35:17.871Z,100.00
2023-05-05T22:37:44.324Z,100.00
2023-05-05T22:40:12.830Z,100.00
2023-05-05T22:42:39.528Z,100.00
2023-05-05T22:45:07.093Z,100.00
2023-05-05T22:47:33.761Z,100.00
2023-05-05T22:50:00.420Z,100.00
2023-05-05T22:52:28.818Z,100.00
2023-05-05T22:54:55.986Z,100.00
2023-05-05T22:57:22.725Z,100.00
2023-05-05T22:59:50.248Z,100.00
2023-05-05T23:02:16.895Z,100.00
2023-05-05T23:04:44.984Z,100.00
2023-05-05T23:07:12.893Z,100.00
2023-05-05T23:09:41.153Z,100.00
2023-05-05T23:12:07.996Z,100.00
2023-05-05T23:14:35.965Z,100.00
2023-05-05T23:17:04.199Z,100.00
2023-05-05T23:19:32.693Z,100.00
2023-05-05T23:22:02.089Z,100.00
2023-05-05T23:24:37.027Z,100.00
2023-05-05T23:27:03.808Z,100.00
2023-05-05T23:29:30.937Z,100.00
2023-05-05T23:31:58.118Z,100.00
2023-05-05T23:34:25.853Z,100.00
2023-05-05T23:36:52.365Z,100.00
2023-05-05T23:39:19.109Z,100.00
2023-05-05T23:41:45.546Z,100.00
2023-05-05T23:44:13.085Z,100.00
2023-05-05T23:46:39.700Z,100.00
2023-05-05T23:49:06.244Z,100.00
2023-05-05T23:51:33.081Z,100.00
2023-05-05T23:53:59.666Z,100.00
2023-05-05T23:56:26.310Z,100.00
2023-05-05T23:58:53.706Z,100.00
